LNR023 LFPG-UDYZ
Flight info
| Callsign | LNR023 |
|---|---|
| Flight time | N/A |
| Altitude | 35000 |
| Route | LANVI DCT BEGAR DCT TRA DCT GAMSA DCT UMVEG DCT ABTAN DCT GRZ DCT NALOX DCT MOPUG DCT ASNEL/N0452F370 DCT UDROS UN743 GAKSU UT310 SIN UN644 KARDE UL851 TBN UP146 YAVUZ/N0441F270 B374 INDUR |
| Aircraft | A320/M-SDE3FGHIRWY/LB1 |
Departure
| Time | 2026-05-05 08:25 |
|---|---|
| Airport | Charles de Gaulle International Airport (LFPG) |
Arrival
| Time | N/A |
|---|---|
| Airport | Zvartnots International Airport (UDYZ) |
| Time | Latitude | Longitude | Altitude | Speed | Heading |
|---|---|---|---|---|---|
| 2026-05-05 07:57 | 49.00140 | 2.57624 | 362 ft | 0 kts | 357° |
| 2026-05-05 08:16 | 49.00139 | 2.57624 | 354 ft | 1 kts | 357° |
| 2026-05-05 08:16 | 49.00115 | 2.57626 | 354 ft | 4 kts | 357° |
| 2026-05-05 08:17 | 49.00088 | 2.57627 | 357 ft | 4 kts | 8° |
| 2026-05-05 08:17 | 49.00064 | 2.57615 | 359 ft | 4 kts | 43° |
| 2026-05-05 08:17 | 49.00054 | 2.57591 | 360 ft | 0 kts | 85° |
| 2026-05-05 08:21 | 49.00057 | 2.57644 | 359 ft | 15 kts | 86° |
| 2026-05-05 08:22 | 48.99990 | 2.57705 | 360 ft | 14 kts | 226° |
| 2026-05-05 08:22 | 48.99971 | 2.57567 | 356 ft | 13 kts | 265° |
| 2026-05-05 08:22 | 48.99962 | 2.57387 | 354 ft | 22 kts | 265° |
| 2026-05-05 08:22 | 48.99951 | 2.57165 | 354 ft | 20 kts | 265° |
| 2026-05-05 08:23 | 48.99939 | 2.56966 | 354 ft | 18 kts | 264° |
| 2026-05-05 08:23 | 48.99929 | 2.56789 | 361 ft | 16 kts | 265° |
| 2026-05-05 08:23 | 48.99893 | 2.56614 | 359 ft | 19 kts | 223° |
| 2026-05-05 08:23 | 48.99779 | 2.56604 | 357 ft | 18 kts | 175° |
| 2026-05-05 08:24 | 48.99664 | 2.56647 | 361 ft | 16 kts | 131° |
| 2026-05-05 08:24 | 48.99659 | 2.56945 | 360 ft | 57 kts | 84° |
| 2026-05-05 08:24 | 48.99710 | 2.57877 | 354 ft | 117 kts | 85° |
| 2026-05-05 08:24 | 48.99787 | 2.59369 | 368 ft | 162 kts | 85° |
| 2026-05-05 08:25 | 48.99869 | 2.61049 | 1054 ft | 157 kts | 82° |
| 2026-05-05 08:25 | 48.99963 | 2.62715 | 1813 ft | 159 kts | 83° |
| 2026-05-05 08:25 | 49.00059 | 2.64450 | 2280 ft | 174 kts | 84° |
| 2026-05-05 08:25 | 49.00163 | 2.66395 | 2554 ft | 195 kts | 84° |
| 2026-05-05 08:26 | 49.00277 | 2.68581 | 2847 ft | 220 kts | 84° |
| 2026-05-05 08:26 | 49.00405 | 2.71035 | 3400 ft | 243 kts | 86° |
| 2026-05-05 08:26 | 49.00535 | 2.73627 | 4209 ft | 252 kts | 85° |
| 2026-05-05 08:26 | 49.00671 | 2.76302 | 5059 ft | 255 kts | 85° |
| 2026-05-05 08:27 | 49.00653 | 2.79019 | 5854 ft | 259 kts | 97° |
| 2026-05-05 08:27 | 49.00405 | 2.81747 | 6774 ft | 261 kts | 98° |
| 2026-05-05 08:27 | 49.00106 | 2.84515 | 7575 ft | 267 kts | 99° |
| 2026-05-05 08:27 | 48.99788 | 2.87315 | 8321 ft | 270 kts | 99° |
| 2026-05-05 08:28 | 48.99467 | 2.90164 | 9102 ft | 274 kts | 98° |
| 2026-05-05 08:28 | 48.99151 | 2.93036 | 9834 ft | 277 kts | 98° |
| 2026-05-05 08:28 | 48.98833 | 2.95987 | 10314 ft | 291 kts | 98° |
| 2026-05-05 08:28 | 48.98536 | 2.99109 | 10488 ft | 313 kts | 97° |
| 2026-05-05 08:29 | 48.98249 | 3.02524 | 10624 ft | 336 kts | 96° |
| 2026-05-05 08:29 | 48.97961 | 3.06153 | 10851 ft | 353 kts | 96° |
| 2026-05-05 08:29 | 48.97666 | 3.09899 | 11380 ft | 359 kts | 97° |
| 2026-05-05 08:30 | 48.97044 | 3.17530 | 12666 ft | 367 kts | 97° |
| 2026-05-05 08:30 | 48.96720 | 3.21402 | 13270 ft | 370 kts | 97° |
| 2026-05-05 08:30 | 48.96387 | 3.25305 | 13883 ft | 373 kts | 98° |
| 2026-05-05 08:30 | 48.96047 | 3.29247 | 14436 ft | 377 kts | 98° |
| 2026-05-05 08:31 | 48.95698 | 3.33228 | 14951 ft | 380 kts | 98° |
| 2026-05-05 08:31 | 48.95348 | 3.37242 | 15500 ft | 383 kts | 98° |
| 2026-05-05 08:31 | 48.95004 | 3.41219 | 16020 ft | 386 kts | 98° |
| 2026-05-05 08:31 | 48.94646 | 3.45337 | 16541 ft | 389 kts | 99° |
| 2026-05-05 08:32 | 48.94293 | 3.49377 | 17032 ft | 392 kts | 99° |
| 2026-05-05 08:32 | 48.93932 | 3.53499 | 17548 ft | 394 kts | 99° |
| 2026-05-05 08:32 | 48.93595 | 3.57642 | 18070 ft | 397 kts | 98° |
| 2026-05-05 08:32 | 48.93336 | 3.61847 | 18505 ft | 400 kts | 96° |
| 2026-05-05 08:33 | 48.93127 | 3.66090 | 18934 ft | 403 kts | 96° |
| 2026-05-05 08:33 | 48.92938 | 3.70351 | 19350 ft | 406 kts | 96° |
| 2026-05-05 08:33 | 48.92744 | 3.74657 | 19756 ft | 408 kts | 96° |
| 2026-05-05 08:33 | 48.92536 | 3.78982 | 20162 ft | 411 kts | 96° |
| 2026-05-05 08:34 | 48.92312 | 3.83333 | 20562 ft | 414 kts | 96° |
| 2026-05-05 08:34 | 48.92077 | 3.87674 | 20953 ft | 417 kts | 97° |
| 2026-05-05 08:34 | 48.91830 | 3.92081 | 21343 ft | 419 kts | 97° |
| 2026-05-05 08:34 | 48.91579 | 3.96523 | 21728 ft | 422 kts | 97° |
| 2026-05-05 08:35 | 48.91324 | 4.00996 | 22101 ft | 425 kts | 97° |
| 2026-05-05 08:35 | 48.91069 | 4.05491 | 22473 ft | 427 kts | 97° |
| 2026-05-05 08:35 | 48.90815 | 4.10002 | 22829 ft | 430 kts | 97° |
| 2026-05-05 08:35 | 48.90559 | 4.14534 | 23171 ft | 432 kts | 97° |
| 2026-05-05 08:36 | 48.90235 | 4.19091 | 23506 ft | 434 kts | 102° |
| 2026-05-05 08:36 | 48.89497 | 4.23469 | 23786 ft | 434 kts | 111° |
| 2026-05-05 08:36 | 48.88286 | 4.27659 | 24096 ft | 434 kts | 120° |
| 2026-05-05 08:36 | 48.86814 | 4.31674 | 24420 ft | 435 kts | 121° |
| 2026-05-05 08:37 | 48.85339 | 4.35692 | 24729 ft | 437 kts | 121° |
| 2026-05-05 08:37 | 48.83855 | 4.39739 | 25079 ft | 439 kts | 121° |
| 2026-05-05 08:37 | 48.82368 | 4.43790 | 25411 ft | 440 kts | 121° |
| 2026-05-05 08:37 | 48.80873 | 4.47868 | 25702 ft | 442 kts | 121° |
| 2026-05-05 08:38 | 48.79374 | 4.51961 | 25981 ft | 443 kts | 122° |
| 2026-05-05 08:38 | 48.77886 | 4.56009 | 26247 ft | 444 kts | 122° |
| 2026-05-05 08:38 | 48.76374 | 4.60105 | 26511 ft | 446 kts | 122° |
| 2026-05-05 08:38 | 48.74854 | 4.64215 | 26775 ft | 447 kts | 122° |
| 2026-05-05 08:39 | 48.73325 | 4.68346 | 27033 ft | 448 kts | 122° |
| 2026-05-05 08:39 | 48.71795 | 4.72470 | 27298 ft | 450 kts | 122° |
| 2026-05-05 08:39 | 48.70260 | 4.76605 | 27655 ft | 449 kts | 122° |
| 2026-05-05 08:39 | 48.68733 | 4.80718 | 28051 ft | 447 kts | 123° |
| 2026-05-05 08:40 | 48.67213 | 4.84804 | 28504 ft | 444 kts | 123° |
| 2026-05-05 08:40 | 48.65699 | 4.88865 | 28923 ft | 442 kts | 124° |
| 2026-05-05 08:40 | 48.64189 | 4.92907 | 29324 ft | 440 kts | 124° |
| 2026-05-05 08:40 | 48.62682 | 4.96934 | 29716 ft | 439 kts | 124° |
| 2026-05-05 08:41 | 48.61180 | 5.00938 | 30077 ft | 437 kts | 124° |
| 2026-05-05 08:41 | 48.59679 | 5.04929 | 30394 ft | 436 kts | 124° |
| 2026-05-05 08:41 | 48.58197 | 5.08861 | 30684 ft | 435 kts | 124° |
| 2026-05-05 08:41 | 48.56681 | 5.12877 | 30979 ft | 434 kts | 124° |
| 2026-05-05 08:42 | 48.55205 | 5.16783 | 31312 ft | 434 kts | 125° |
| 2026-05-05 08:42 | 48.53709 | 5.20734 | 31707 ft | 433 kts | 125° |
| 2026-05-05 08:42 | 48.52218 | 5.24676 | 32120 ft | 432 kts | 124° |
| 2026-05-05 08:42 | 48.50731 | 5.28610 | 32534 ft | 431 kts | 124° |
| 2026-05-05 08:43 | 48.49244 | 5.32535 | 32835 ft | 430 kts | 125° |
| 2026-05-05 08:43 | 48.47757 | 5.36455 | 33115 ft | 430 kts | 125° |
| 2026-05-05 08:43 | 48.46269 | 5.40365 | 33389 ft | 429 kts | 125° |
| 2026-05-05 08:43 | 48.44784 | 5.44266 | 33666 ft | 429 kts | 125° |
| 2026-05-05 08:44 | 48.43296 | 5.48158 | 33919 ft | 429 kts | 125° |
| 2026-05-05 08:44 | 48.41800 | 5.52054 | 34142 ft | 429 kts | 125° |
| 2026-05-05 08:44 | 48.40325 | 5.55904 | 34331 ft | 430 kts | 125° |
| 2026-05-05 08:44 | 48.38831 | 5.59804 | 34518 ft | 431 kts | 124° |
| 2026-05-05 08:45 | 48.37335 | 5.63711 | 34690 ft | 431 kts | 125° |
| 2026-05-05 08:45 | 48.35836 | 5.67616 | 34837 ft | 432 kts | 125° |
| 2026-05-05 08:45 | 48.34301 | 5.71592 | 34887 ft | 435 kts | 125° |
| 2026-05-05 08:46 | 48.31337 | 5.79522 | 34890 ft | 439 kts | 119° |
| 2026-05-05 08:46 | 48.29319 | 5.88265 | 34892 ft | 444 kts | 113° |
| 2026-05-05 08:47 | 48.27395 | 5.97096 | 34892 ft | 444 kts | 113° |
| 2026-05-05 08:47 | 48.25467 | 6.05896 | 34886 ft | 444 kts | 114° |
| 2026-05-05 08:48 | 48.23547 | 6.14638 | 34887 ft | 444 kts | 114° |
| 2026-05-05 08:48 | 48.21615 | 6.23423 | 34887 ft | 443 kts | 114° |
| 2026-05-05 08:49 | 48.19672 | 6.32222 | 34887 ft | 443 kts | 114° |
| 2026-05-05 08:49 | 48.17717 | 6.40987 | 34886 ft | 443 kts | 114° |
| 2026-05-05 08:50 | 48.15756 | 6.49756 | 34871 ft | 443 kts | 114° |
| 2026-05-05 08:50 | 48.13805 | 6.58459 | 34879 ft | 444 kts | 115° |
| 2026-05-05 08:51 | 48.11831 | 6.67217 | 34887 ft | 444 kts | 115° |
| 2026-05-05 08:51 | 48.09853 | 6.75959 | 34885 ft | 443 kts | 115° |
| 2026-05-05 08:52 | 48.07873 | 6.84704 | 34871 ft | 444 kts | 115° |
| 2026-05-05 08:52 | 48.05884 | 6.93452 | 34877 ft | 444 kts | 115° |
| 2026-05-05 08:53 | 48.03884 | 7.02184 | 34879 ft | 444 kts | 115° |
| 2026-05-05 08:53 | 48.01893 | 7.10871 | 34886 ft | 444 kts | 115° |
| 2026-05-05 08:54 | 47.99873 | 7.19593 | 34890 ft | 444 kts | 115° |
| 2026-05-05 08:54 | 47.97854 | 7.28294 | 34877 ft | 443 kts | 115° |
| 2026-05-05 08:55 | 47.95834 | 7.36977 | 34887 ft | 443 kts | 115° |
| 2026-05-05 08:55 | 47.93809 | 7.45653 | 34895 ft | 443 kts | 115° |
| 2026-05-05 08:56 | 47.91776 | 7.54318 | 34907 ft | 442 kts | 115° |
| 2026-05-05 08:56 | 47.89710 | 7.62966 | 34906 ft | 441 kts | 116° |
| 2026-05-05 08:57 | 47.87561 | 7.71463 | 34889 ft | 441 kts | 116° |
| 2026-05-05 08:57 | 47.85365 | 7.79983 | 34886 ft | 441 kts | 116° |
| 2026-05-05 08:58 | 47.83185 | 7.88511 | 34888 ft | 441 kts | 116° |
| 2026-05-05 08:58 | 47.81362 | 7.95657 | 34885 ft | 441 kts | 116° |
| 2026-05-05 08:59 | 47.79192 | 8.04150 | 34882 ft | 440 kts | 116° |
| 2026-05-05 08:59 | 47.77002 | 8.12662 | 34883 ft | 441 kts | 116° |
| 2026-05-05 09:00 | 47.74822 | 8.21103 | 34884 ft | 441 kts | 116° |
| 2026-05-05 09:00 | 47.72618 | 8.29600 | 34889 ft | 441 kts | 117° |
| 2026-05-05 09:01 | 47.70429 | 8.37992 | 34886 ft | 440 kts | 116° |
| 2026-05-05 09:01 | 47.68275 | 8.46340 | 34870 ft | 441 kts | 115° |
| 2026-05-05 09:02 | 47.66293 | 8.54980 | 34879 ft | 443 kts | 113° |
| 2026-05-05 09:02 | 47.64436 | 8.63565 | 34887 ft | 444 kts | 113° |
| 2026-05-05 09:03 | 47.62504 | 8.72262 | 34882 ft | 444 kts | 114° |
| 2026-05-05 09:03 | 47.60513 | 8.80942 | 34887 ft | 444 kts | 114° |
| 2026-05-05 09:04 | 47.58519 | 8.89574 | 34878 ft | 445 kts | 114° |
| 2026-05-05 09:04 | 47.56540 | 8.98173 | 34876 ft | 446 kts | 114° |
| 2026-05-05 09:05 | 47.54534 | 9.06871 | 34878 ft | 447 kts | 114° |
| 2026-05-05 09:05 | 47.52559 | 9.15401 | 34876 ft | 447 kts | 114° |
| 2026-05-05 09:06 | 47.50524 | 9.24093 | 34863 ft | 447 kts | 114° |
| 2026-05-05 09:06 | 47.48521 | 9.32667 | 34867 ft | 447 kts | 114° |
| 2026-05-05 09:07 | 47.46493 | 9.41317 | 34876 ft | 448 kts | 114° |
| 2026-05-05 09:07 | 47.44441 | 9.49996 | 34878 ft | 447 kts | 114° |
| 2026-05-05 09:08 | 47.42378 | 9.58674 | 34881 ft | 448 kts | 114° |
| 2026-05-05 09:08 | 47.40653 | 9.67555 | 34859 ft | 454 kts | 102° |
| 2026-05-05 09:09 | 47.39927 | 9.76862 | 34862 ft | 457 kts | 101° |
| 2026-05-05 09:09 | 47.39212 | 9.86121 | 34863 ft | 457 kts | 101° |
| 2026-05-05 09:10 | 47.38464 | 9.95458 | 34862 ft | 458 kts | 101° |
| 2026-05-05 09:10 | 47.37705 | 10.04793 | 34847 ft | 459 kts | 101° |
| 2026-05-05 09:11 | 47.36944 | 10.14093 | 34852 ft | 460 kts | 101° |
| 2026-05-05 09:11 | 47.36168 | 10.23470 | 34852 ft | 460 kts | 101° |
| 2026-05-05 09:12 | 47.35391 | 10.32877 | 34858 ft | 461 kts | 101° |
| 2026-05-05 09:12 | 47.34608 | 10.42259 | 34853 ft | 461 kts | 101° |
| 2026-05-05 09:13 | 47.33805 | 10.51643 | 34848 ft | 462 kts | 101° |
| 2026-05-05 09:13 | 47.32989 | 10.61050 | 34849 ft | 462 kts | 101° |
| 2026-05-05 09:14 | 47.32177 | 10.70466 | 34862 ft | 463 kts | 101° |
| 2026-05-05 09:14 | 47.31370 | 10.79817 | 34868 ft | 463 kts | 101° |
| 2026-05-05 09:15 | 47.30542 | 10.89226 | 34856 ft | 463 kts | 101° |
| 2026-05-05 09:15 | 47.29691 | 10.98628 | 34865 ft | 463 kts | 101° |
| 2026-05-05 09:16 | 47.28840 | 11.08041 | 34873 ft | 463 kts | 101° |
| 2026-05-05 09:16 | 47.27995 | 11.17432 | 34889 ft | 463 kts | 101° |
| 2026-05-05 09:17 | 47.27133 | 11.26844 | 34881 ft | 463 kts | 101° |
| 2026-05-05 09:17 | 47.26263 | 11.36233 | 34878 ft | 463 kts | 101° |
| 2026-05-05 09:18 | 47.25393 | 11.45570 | 34876 ft | 463 kts | 101° |
| 2026-05-05 09:18 | 47.24506 | 11.54951 | 34885 ft | 463 kts | 101° |
| 2026-05-05 09:19 | 47.23607 | 11.64336 | 34886 ft | 462 kts | 101° |
| 2026-05-05 09:19 | 47.22710 | 11.73715 | 34873 ft | 462 kts | 101° |